sensor_id;sensor_type;location;lat;lon;timestamp;P1;durP1;ratioP1;P2;durP2;ratioP2
59159;SDS011;44941;45.058;20.076;2022-09-09T00:00:40;14.95;;;8.02;;
59159;SDS011;44941;45.058;20.076;2022-09-09T00:03:12;14.40;;;7.68;;
59159;SDS011;44941;45.058;20.076;2022-09-09T00:05:42;12.82;;;7.25;;
59159;SDS011;44941;45.058;20.076;2022-09-09T00:08:13;13.90;;;6.90;;
59159;SDS011;44941;45.058;20.076;2022-09-09T00:10:41;17.77;;;8.27;;
59159;SDS011;44941;45.058;20.076;2022-09-09T00:13:25;12.57;;;6.97;;
59159;SDS011;44941;45.058;20.076;2022-09-09T00:18:44;11.02;;;6.95;;
59159;SDS011;44941;45.058;20.076;2022-09-09T00:21:12;11.60;;;6.97;;
59159;SDS011;44941;45.058;20.076;2022-09-09T00:23:44;13.98;;;6.68;;
59159;SDS011;44941;45.058;20.076;2022-09-09T00:26:30;11.93;;;6.30;;
59159;SDS011;44941;45.058;20.076;2022-09-09T00:31:33;9.60;;;5.82;;
59159;SDS011;44941;45.058;20.076;2022-09-09T00:34:03;12.88;;;5.95;;
59159;SDS011;44941;45.058;20.076;2022-09-09T00:36:31;20.15;;;6.25;;
59159;SDS011;44941;45.058;20.076;2022-09-09T00:39:00;12.02;;;6.07;;
59159;SDS011;44941;45.058;20.076;2022-09-09T00:43:57;14.07;;;6.07;;
59159;SDS011;44941;45.058;20.076;2022-09-09T00:46:33;15.65;;;6.10;;
59159;SDS011;44941;45.058;20.076;2022-09-09T00:49:15;12.68;;;6.78;;
59159;SDS011;44941;45.058;20.076;2022-09-09T00:51:52;10.80;;;6.40;;
59159;SDS011;44941;45.058;20.076;2022-09-09T00:59:50;13.38;;;6.65;;
59159;SDS011;44941;45.058;20.076;2022-09-09T01:02:53;13.75;;;7.28;;
59159;SDS011;44941;45.058;20.076;2022-09-09T01:05:15;16.85;;;7.82;;
59159;SDS011;44941;45.058;20.076;2022-09-09T01:07:44;17.55;;;8.23;;
59159;SDS011;44941;45.058;20.076;2022-09-09T01:10:17;18.33;;;7.88;;
59159;SDS011;44941;45.058;20.076;2022-09-09T01:12:47;17.27;;;7.65;;
59159;SDS011;44941;45.058;20.076;2022-09-09T01:15:16;14.98;;;8.40;;
59159;SDS011;44941;45.058;20.076;2022-09-09T01:20:14;18.67;;;8.52;;
59159;SDS011;44941;45.058;20.076;2022-09-09T01:25:27;14.15;;;8.40;;
59159;SDS011;44941;45.058;20.076;2022-09-09T01:28:04;16.17;;;8.40;;
59159;SDS011;44941;45.058;20.076;2022-09-09T01:30:32;14.82;;;7.90;;
59159;SDS011;44941;45.058;20.076;2022-09-09T01:32:59;15.88;;;7.65;;
59159;SDS011;44941;45.058;20.076;2022-09-09T01:37:56;14.55;;;8.57;;
59159;SDS011;44941;45.058;20.076;2022-09-09T01:40:23;13.57;;;8.00;;
59159;SDS011;44941;45.058;20.076;2022-09-09T01:42:49;17.27;;;8.30;;
59159;SDS011;44941;45.058;20.076;2022-09-09T01:45:15;13.10;;;8.13;;
59159;SDS011;44941;45.058;20.076;2022-09-09T01:47:41;15.90;;;8.90;;
59159;SDS011;44941;45.058;20.076;2022-09-09T01:50:08;15.35;;;8.50;;
59159;SDS011;44941;45.058;20.076;2022-09-09T01:52:36;16.88;;;8.18;;
59159;SDS011;44941;45.058;20.076;2022-09-09T01:55:03;16.23;;;8.32;;
59159;SDS011;44941;45.058;20.076;2022-09-09T02:00:11;14.25;;;8.25;;
59159;SDS011;44941;45.058;20.076;2022-09-09T02:05:38;17.38;;;8.10;;
59159;SDS011;44941;45.058;20.076;2022-09-09T02:08:14;14.57;;;8.13;;
59159;SDS011;44941;45.058;20.076;2022-09-09T02:13:13;18.60;;;7.75;;
59159;SDS011;44941;45.058;20.076;2022-09-09T02:15:44;16.58;;;7.85;;
59159;SDS011;44941;45.058;20.076;2022-09-09T02:18:11;16.92;;;8.75;;
59159;SDS011;44941;45.058;20.076;2022-09-09T02:20:39;14.90;;;8.73;;
59159;SDS011;44941;45.058;20.076;2022-09-09T02:23:05;12.70;;;7.18;;
59159;SDS011;44941;45.058;20.076;2022-09-09T02:25:33;15.48;;;7.30;;
59159;SDS011;44941;45.058;20.076;2022-09-09T02:28:01;15.05;;;6.80;;
59159;SDS011;44941;45.058;20.076;2022-09-09T02:30:29;13.93;;;6.57;;
59159;SDS011;44941;45.058;20.076;2022-09-09T02:32:59;14.77;;;6.15;;
59159;SDS011;44941;45.058;20.076;2022-09-09T02:35:27;15.57;;;6.50;;
59159;SDS011;44941;45.058;20.076;2022-09-09T02:37:55;14.73;;;6.22;;
59159;SDS011;44941;45.058;20.076;2022-09-09T02:40:24;12.65;;;5.75;;
59159;SDS011;44941;45.058;20.076;2022-09-09T02:42:50;10.15;;;5.35;;
59159;SDS011;44941;45.058;20.076;2022-09-09T02:45:18;13.50;;;6.22;;
59159;SDS011;44941;45.058;20.076;2022-09-09T02:47:53;9.45;;;4.93;;
59159;SDS011;44941;45.058;20.076;2022-09-09T02:55:17;11.93;;;5.35;;
59159;SDS011;44941;45.058;20.076;2022-09-09T02:57:44;11.32;;;5.13;;
59159;SDS011;44941;45.058;20.076;2022-09-09T03:00:12;14.15;;;5.13;;
59159;SDS011;44941;45.058;20.076;2022-09-09T03:02:39;11.55;;;5.43;;
59159;SDS011;44941;45.058;20.076;2022-09-09T03:05:07;13.45;;;5.25;;
59159;SDS011;44941;45.058;20.076;2022-09-09T03:07:33;11.00;;;5.07;;
59159;SDS011;44941;45.058;20.076;2022-09-09T03:09:59;13.07;;;5.23;;
59159;SDS011;44941;45.058;20.076;2022-09-09T03:12:26;11.60;;;5.47;;
59159;SDS011;44941;45.058;20.076;2022-09-09T03:14:52;11.20;;;5.13;;
59159;SDS011;44941;45.058;20.076;2022-09-09T03:17:18;11.25;;;5.07;;
59159;SDS011;44941;45.058;20.076;2022-09-09T03:19:44;11.30;;;5.18;;
59159;SDS011;44941;45.058;20.076;2022-09-09T03:22:10;13.35;;;4.85;;
59159;SDS011;44941;45.058;20.076;2022-09-09T03:24:38;14.60;;;6.22;;
59159;SDS011;44941;45.058;20.076;2022-09-09T03:27:05;11.35;;;5.35;;
59159;SDS011;44941;45.058;20.076;2022-09-09T03:29:32;13.50;;;5.63;;
59159;SDS011;44941;45.058;20.076;2022-09-09T03:31:58;10.60;;;5.30;;
59159;SDS011;44941;45.058;20.076;2022-09-09T03:34:24;9.07;;;5.03;;
59159;SDS011;44941;45.058;20.076;2022-09-09T03:36:50;13.20;;;4.97;;
59159;SDS011;44941;45.058;20.076;2022-09-09T03:39:16;13.25;;;5.07;;
59159;SDS011;44941;45.058;20.076;2022-09-09T03:41:43;14.68;;;5.00;;
59159;SDS011;44941;45.058;20.076;2022-09-09T03:44:11;8.85;;;4.65;;
59159;SDS011;44941;45.058;20.076;2022-09-09T03:46:37;14.63;;;5.75;;
59159;SDS011;44941;45.058;20.076;2022-09-09T03:49:03;11.05;;;4.88;;
59159;SDS011;44941;45.058;20.076;2022-09-09T03:51:29;13.07;;;5.50;;
59159;SDS011;44941;45.058;20.076;2022-09-09T03:53:55;12.23;;;4.93;;
59159;SDS011;44941;45.058;20.076;2022-09-09T03:56:23;10.77;;;5.00;;
59159;SDS011;44941;45.058;20.076;2022-09-09T03:58:49;15.10;;;5.10;;
59159;SDS011;44941;45.058;20.076;2022-09-09T04:01:15;14.90;;;5.63;;
59159;SDS011;44941;45.058;20.076;2022-09-09T04:03:43;13.68;;;5.68;;
59159;SDS011;44941;45.058;20.076;2022-09-09T04:06:10;14.50;;;5.20;;
59159;SDS011;44941;45.058;20.076;2022-09-09T04:11:03;11.38;;;5.28;;
59159;SDS011;44941;45.058;20.076;2022-09-09T04:13:31;19.25;;;5.47;;
59159;SDS011;44941;45.058;20.076;2022-09-09T04:15:58;12.23;;;5.47;;
59159;SDS011;44941;45.058;20.076;2022-09-09T04:18:25;14.27;;;5.93;;
59159;SDS011;44941;45.058;20.076;2022-09-09T04:20:51;18.03;;;6.40;;
59159;SDS011;44941;45.058;20.076;2022-09-09T04:23:18;22.57;;;6.20;;
59159;SDS011;44941;45.058;20.076;2022-09-09T04:25:49;21.77;;;5.82;;
59159;SDS011;44941;45.058;20.076;2022-09-09T04:28:16;13.68;;;5.93;;
59159;SDS011;44941;45.058;20.076;2022-09-09T04:30:43;17.40;;;6.78;;
59159;SDS011;44941;45.058;20.076;2022-09-09T04:33:09;14.03;;;5.93;;
59159;SDS011;44941;45.058;20.076;2022-09-09T04:35:36;17.70;;;6.20;;
59159;SDS011;44941;45.058;20.076;2022-09-09T04:38:03;17.23;;;6.25;;
59159;SDS011;44941;45.058;20.076;2022-09-09T04:40:29;14.10;;;5.20;;
59159;SDS011;44941;45.058;20.076;2022-09-09T04:43:00;15.05;;;5.63;;
59159;SDS011;44941;45.058;20.076;2022-09-09T04:45:28;15.02;;;5.78;;
59159;SDS011;44941;45.058;20.076;2022-09-09T04:47:54;14.55;;;5.65;;
59159;SDS011;44941;45.058;20.076;2022-09-09T04:50:20;12.90;;;5.32;;
59159;SDS011;44941;45.058;20.076;2022-09-09T04:52:46;14.77;;;5.35;;
59159;SDS011;44941;45.058;20.076;2022-09-09T04:55:12;14.27;;;5.50;;
59159;SDS011;44941;45.058;20.076;2022-09-09T04:57:39;15.50;;;5.80;;
59159;SDS011;44941;45.058;20.076;2022-09-09T05:00:05;11.75;;;5.40;;
59159;SDS011;44941;45.058;20.076;2022-09-09T05:02:31;13.63;;;5.53;;
59159;SDS011;44941;45.058;20.076;2022-09-09T05:04:58;13.45;;;5.82;;
59159;SDS011;44941;45.058;20.076;2022-09-09T05:07:26;12.70;;;6.22;;
59159;SDS011;44941;45.058;20.076;2022-09-09T05:09:54;15.07;;;6.18;;
59159;SDS011;44941;45.058;20.076;2022-09-09T05:12:20;11.35;;;5.47;;
59159;SDS011;44941;45.058;20.076;2022-09-09T05:14:49;11.35;;;4.85;;
59159;SDS011;44941;45.058;20.076;2022-09-09T05:17:15;18.52;;;5.18;;
59159;SDS011;44941;45.058;20.076;2022-09-09T05:19:41;151.95;;;13.88;;
59159;SDS011;44941;45.058;20.076;2022-09-09T05:22:08;12.10;;;5.28;;
59159;SDS011;44941;45.058;20.076;2022-09-09T05:24:34;24.75;;;4.72;;
59159;SDS011;44941;45.058;20.076;2022-09-09T05:29:28;9.38;;;4.35;;
59159;SDS011;44941;45.058;20.076;2022-09-09T05:31:54;10.93;;;4.72;;
59159;SDS011;44941;45.058;20.076;2022-09-09T05:34:20;17.42;;;4.70;;
59159;SDS011;44941;45.058;20.076;2022-09-09T05:36:46;16.35;;;4.78;;
59159;SDS011;44941;45.058;20.076;2022-09-09T05:39:12;13.60;;;5.20;;
59159;SDS011;44941;45.058;20.076;2022-09-09T05:41:38;14.88;;;5.30;;
59159;SDS011;44941;45.058;20.076;2022-09-09T05:44:04;14.20;;;5.13;;
59159;SDS011;44941;45.058;20.076;2022-09-09T05:46:31;11.05;;;5.22;;
59159;SDS011;44941;45.058;20.076;2022-09-09T05:48:57;17.23;;;5.50;;
59159;SDS011;44941;45.058;20.076;2022-09-09T05:51:24;12.63;;;5.32;;
59159;SDS011;44941;45.058;20.076;2022-09-09T05:53:51;14.57;;;6.03;;
59159;SDS011;44941;45.058;20.076;2022-09-09T05:56:18;12.65;;;5.75;;
59159;SDS011;44941;45.058;20.076;2022-09-09T05:58:45;12.02;;;5.63;;
59159;SDS011;44941;45.058;20.076;2022-09-09T06:01:15;12.70;;;5.78;;
59159;SDS011;44941;45.058;20.076;2022-09-09T06:03:42;16.15;;;5.72;;
59159;SDS011;44941;45.058;20.076;2022-09-09T06:06:10;12.90;;;6.10;;
59159;SDS011;44941;45.058;20.076;2022-09-09T06:08:37;13.52;;;6.13;;
59159;SDS011;44941;45.058;20.076;2022-09-09T06:13:31;19.80;;;6.90;;
59159;SDS011;44941;45.058;20.076;2022-09-09T06:15:57;16.27;;;6.45;;
59159;SDS011;44941;45.058;20.076;2022-09-09T06:18:23;14.57;;;6.45;;
59159;SDS011;44941;45.058;20.076;2022-09-09T06:23:17;12.52;;;6.93;;
59159;SDS011;44941;45.058;20.076;2022-09-09T06:25:44;16.60;;;6.17;;
59159;SDS011;44941;45.058;20.076;2022-09-09T06:28:10;12.55;;;6.30;;
59159;SDS011;44941;45.058;20.076;2022-09-09T06:30:36;13.73;;;6.65;;
59159;SDS011;44941;45.058;20.076;2022-09-09T06:33:02;11.68;;;5.72;;
59159;SDS011;44941;45.058;20.076;2022-09-09T06:35:29;15.18;;;5.40;;
59159;SDS011;44941;45.058;20.076;2022-09-09T06:37:55;12.43;;;5.35;;
59159;SDS011;44941;45.058;20.076;2022-09-09T06:40:23;12.60;;;5.30;;
59159;SDS011;44941;45.058;20.076;2022-09-09T06:42:49;11.77;;;5.28;;
59159;SDS011;44941;45.058;20.076;2022-09-09T06:45:16;11.55;;;4.63;;
59159;SDS011;44941;45.058;20.076;2022-09-09T06:47:43;12.10;;;4.25;;
59159;SDS011;44941;45.058;20.076;2022-09-09T06:50:09;10.45;;;4.75;;
59159;SDS011;44941;45.058;20.076;2022-09-09T06:52:36;9.48;;;4.90;;
59159;SDS011;44941;45.058;20.076;2022-09-09T06:55:02;10.32;;;4.70;;
59159;SDS011;44941;45.058;20.076;2022-09-09T06:57:29;10.93;;;5.10;;
59159;SDS011;44941;45.058;20.076;2022-09-09T06:59:55;12.43;;;5.05;;
59159;SDS011;44941;45.058;20.076;2022-09-09T07:02:21;11.90;;;5.32;;
59159;SDS011;44941;45.058;20.076;2022-09-09T07:04:47;15.43;;;5.30;;
59159;SDS011;44941;45.058;20.076;2022-09-09T07:07:16;14.82;;;5.38;;
59159;SDS011;44941;45.058;20.076;2022-09-09T07:09:42;13.27;;;5.65;;
59159;SDS011;44941;45.058;20.076;2022-09-09T07:14:36;11.48;;;5.68;;
59159;SDS011;44941;45.058;20.076;2022-09-09T07:17:02;10.17;;;5.63;;
59159;SDS011;44941;45.058;20.076;2022-09-09T07:19:29;10.48;;;5.53;;
59159;SDS011;44941;45.058;20.076;2022-09-09T07:21:55;10.20;;;5.43;;
59159;SDS011;44941;45.058;20.076;2022-09-09T07:24:21;9.77;;;5.93;;
59159;SDS011;44941;45.058;20.076;2022-09-09T07:26:47;12.43;;;6.93;;
59159;SDS011;44941;45.058;20.076;2022-09-09T07:29:13;13.05;;;7.15;;
59159;SDS011;44941;45.058;20.076;2022-09-09T07:31:39;14.18;;;7.28;;
59159;SDS011;44941;45.058;20.076;2022-09-09T07:34:06;16.73;;;8.18;;
59159;SDS011;44941;45.058;20.076;2022-09-09T07:36:33;12.68;;;7.63;;
59159;SDS011;44941;45.058;20.076;2022-09-09T07:39:00;13.57;;;7.45;;
59159;SDS011;44941;45.058;20.076;2022-09-09T07:41:28;12.15;;;6.80;;
59159;SDS011;44941;45.058;20.076;2022-09-09T07:43:55;11.10;;;6.63;;
59159;SDS011;44941;45.058;20.076;2022-09-09T07:46:25;12.50;;;6.80;;
59159;SDS011;44941;45.058;20.076;2022-09-09T07:48:52;13.25;;;7.68;;
59159;SDS011;44941;45.058;20.076;2022-09-09T07:51:29;11.55;;;6.25;;
59159;SDS011;44941;45.058;20.076;2022-09-09T07:53:56;15.18;;;6.45;;
59159;SDS011;44941;45.058;20.076;2022-09-09T07:56:23;15.40;;;6.45;;
59159;SDS011;44941;45.058;20.076;2022-09-09T07:58:50;11.67;;;6.50;;
59159;SDS011;44941;45.058;20.076;2022-09-09T08:01:18;13.90;;;5.95;;
59159;SDS011;44941;45.058;20.076;2022-09-09T08:03:45;10.63;;;6.50;;
59159;SDS011;44941;45.058;20.076;2022-09-09T08:06:12;13.37;;;5.90;;
59159;SDS011;44941;45.058;20.076;2022-09-09T08:08:39;16.63;;;5.93;;
59159;SDS011;44941;45.058;20.076;2022-09-09T08:11:08;11.27;;;6.55;;
59159;SDS011;44941;45.058;20.076;2022-09-09T08:13:35;14.13;;;6.68;;
59159;SDS011;44941;45.058;20.076;2022-09-09T08:16:05;12.13;;;6.20;;
59159;SDS011;44941;45.058;20.076;2022-09-09T08:18:31;13.35;;;6.93;;
59159;SDS011;44941;45.058;20.076;2022-09-09T08:20:58;16.38;;;6.05;;
59159;SDS011;44941;45.058;20.076;2022-09-09T08:23:26;13.25;;;6.38;;
59159;SDS011;44941;45.058;20.076;2022-09-09T08:25:52;12.32;;;6.38;;
59159;SDS011;44941;45.058;20.076;2022-09-09T08:28:18;12.27;;;6.00;;
59159;SDS011;44941;45.058;20.076;2022-09-09T08:30:44;13.88;;;5.72;;
59159;SDS011;44941;45.058;20.076;2022-09-09T08:33:11;15.27;;;6.18;;
59159;SDS011;44941;45.058;20.076;2022-09-09T08:35:37;12.30;;;6.60;;
59159;SDS011;44941;45.058;20.076;2022-09-09T08:38:03;12.27;;;5.82;;
59159;SDS011;44941;45.058;20.076;2022-09-09T08:40:29;12.55;;;6.78;;
59159;SDS011;44941;45.058;20.076;2022-09-09T08:42:59;13.68;;;6.88;;
59159;SDS011;44941;45.058;20.076;2022-09-09T08:46:30;12.25;;;6.88;;
59159;SDS011;44941;45.058;20.076;2022-09-09T08:48:28;11.90;;;6.70;;
59159;SDS011;44941;45.058;20.076;2022-09-09T08:50:56;16.02;;;7.40;;
59159;SDS011;44941;45.058;20.076;2022-09-09T08:53:33;11.20;;;7.00;;
59159;SDS011;44941;45.058;20.076;2022-09-09T08:56:08;15.20;;;7.28;;
59159;SDS011;44941;45.058;20.076;2022-09-09T08:58:50;13.57;;;7.60;;
59159;SDS011;44941;45.058;20.076;2022-09-09T09:11:19;14.93;;;6.75;;
59159;SDS011;44941;45.058;20.076;2022-09-09T09:16:24;14.95;;;7.60;;
59159;SDS011;44941;45.058;20.076;2022-09-09T09:18:52;16.30;;;7.32;;
59159;SDS011;44941;45.058;20.076;2022-09-09T09:23:59;11.38;;;6.72;;
59159;SDS011;44941;45.058;20.076;2022-09-09T09:26:29;15.85;;;7.28;;
59159;SDS011;44941;45.058;20.076;2022-09-09T09:28:56;12.48;;;6.53;;
59159;SDS011;44941;45.058;20.076;2022-09-09T09:31:24;10.73;;;5.00;;
59159;SDS011;44941;45.058;20.076;2022-09-09T09:36:24;13.70;;;6.57;;
59159;SDS011;44941;45.058;20.076;2022-09-09T09:38:58;16.92;;;6.55;;
59159;SDS011;44941;45.058;20.076;2022-09-09T09:41:28;13.98;;;6.60;;
59159;SDS011;44941;45.058;20.076;2022-09-09T09:43:55;12.73;;;6.60;;
59159;SDS011;44941;45.058;20.076;2022-09-09T09:46:22;10.65;;;6.82;;
59159;SDS011;44941;45.058;20.076;2022-09-09T09:49:02;12.65;;;7.20;;
59159;SDS011;44941;45.058;20.076;2022-09-09T09:51:30;11.68;;;5.70;;
59159;SDS011;44941;45.058;20.076;2022-09-09T09:56:35;9.80;;;6.32;;
59159;SDS011;44941;45.058;20.076;2022-09-09T09:59:02;12.18;;;6.15;;
59159;SDS011;44941;45.058;20.076;2022-09-09T10:01:30;11.32;;;6.10;;
59159;SDS011;44941;45.058;20.076;2022-09-09T10:04:12;16.63;;;8.27;;
59159;SDS011;44941;45.058;20.076;2022-09-09T10:06:41;14.20;;;7.40;;
59159;SDS011;44941;45.058;20.076;2022-09-09T10:09:24;13.13;;;6.90;;
59159;SDS011;44941;45.058;20.076;2022-09-09T10:19:36;16.17;;;7.28;;
59159;SDS011;44941;45.058;20.076;2022-09-09T10:22:10;10.35;;;5.22;;
59159;SDS011;44941;45.058;20.076;2022-09-09T10:40:33;10.65;;;5.50;;
59159;SDS011;44941;45.058;20.076;2022-09-09T10:48:40;9.13;;;4.50;;
59159;SDS011;44941;45.058;20.076;2022-09-09T10:53:32;15.32;;;5.22;;
59159;SDS011;44941;45.058;20.076;2022-09-09T10:56:22;10.95;;;5.15;;
59159;SDS011;44941;45.058;20.076;2022-09-09T10:58:53;10.57;;;4.50;;
59159;SDS011;44941;45.058;20.076;2022-09-09T11:01:21;10.90;;;5.35;;
59159;SDS011;44941;45.058;20.076;2022-09-09T11:03:51;9.93;;;4.78;;
59159;SDS011;44941;45.058;20.076;2022-09-09T11:06:19;10.55;;;4.57;;
59159;SDS011;44941;45.058;20.076;2022-09-09T11:08:47;9.70;;;4.53;;
59159;SDS011;44941;45.058;20.076;2022-09-09T11:11:33;12.48;;;4.45;;
59159;SDS011;44941;45.058;20.076;2022-09-09T11:14:14;13.32;;;4.50;;
59159;SDS011;44941;45.058;20.076;2022-09-09T11:16:49;10.25;;;4.28;;
59159;SDS011;44941;45.058;20.076;2022-09-09T11:21:57;8.35;;;4.00;;
59159;SDS011;44941;45.058;20.076;2022-09-09T11:26:55;6.78;;;3.97;;
59159;SDS011;44941;45.058;20.076;2022-09-09T11:29:32;10.20;;;4.22;;
59159;SDS011;44941;45.058;20.076;2022-09-09T11:34:51;10.50;;;4.20;;
59159;SDS011;44941;45.058;20.076;2022-09-09T11:40:08;9.93;;;4.32;;
59159;SDS011;44941;45.058;20.076;2022-09-09T11:42:35;9.95;;;4.22;;
59159;SDS011;44941;45.058;20.076;2022-09-09T11:45:11;11.15;;;4.35;;
59159;SDS011;44941;45.058;20.076;2022-09-09T11:48:20;10.65;;;4.47;;
59159;SDS011;44941;45.058;20.076;2022-09-09T11:53:31;13.27;;;4.32;;
59159;SDS011;44941;45.058;20.076;2022-09-09T11:56:03;11.15;;;3.95;;
59159;SDS011;44941;45.058;20.076;2022-09-09T11:58:32;17.23;;;4.57;;
59159;SDS011;44941;45.058;20.076;2022-09-09T12:01:00;9.20;;;4.78;;
59159;SDS011;44941;45.058;20.076;2022-09-09T12:08:31;12.07;;;4.07;;
59159;SDS011;44941;45.058;20.076;2022-09-09T12:10:58;10.77;;;4.43;;
59159;SDS011;44941;45.058;20.076;2022-09-09T12:13:29;9.02;;;4.10;;
59159;SDS011;44941;45.058;20.076;2022-09-09T12:15:58;9.95;;;3.70;;
59159;SDS011;44941;45.058;20.076;2022-09-09T12:18:25;10.93;;;3.75;;
59159;SDS011;44941;45.058;20.076;2022-09-09T12:20:54;11.05;;;3.78;;
59159;SDS011;44941;45.058;20.076;2022-09-09T12:23:33;10.55;;;4.32;;
59159;SDS011;44941;45.058;20.076;2022-09-09T12:33:34;8.20;;;3.33;;
59159;SDS011;44941;45.058;20.076;2022-09-09T12:40:56;10.13;;;3.22;;
59159;SDS011;44941;45.058;20.076;2022-09-09T12:43:23;12.85;;;3.40;;
59159;SDS011;44941;45.058;20.076;2022-09-09T12:45:50;10.38;;;3.55;;
59159;SDS011;44941;45.058;20.076;2022-09-09T12:48:22;14.90;;;3.65;;
59159;SDS011;44941;45.058;20.076;2022-09-09T12:50:51;11.23;;;3.42;;
59159;SDS011;44941;45.058;20.076;2022-09-09T12:53:27;8.85;;;3.67;;
59159;SDS011;44941;45.058;20.076;2022-09-09T12:58:20;9.25;;;4.40;;
59159;SDS011;44941;45.058;20.076;2022-09-09T13:00:51;8.95;;;3.28;;
59159;SDS011;44941;45.058;20.076;2022-09-09T13:03:18;13.00;;;4.07;;
59159;SDS011;44941;45.058;20.076;2022-09-09T13:05:46;10.88;;;4.20;;
59159;SDS011;44941;45.058;20.076;2022-09-09T13:08:13;13.27;;;5.40;;
59159;SDS011;44941;45.058;20.076;2022-09-09T13:10:50;10.23;;;4.00;;
59159;SDS011;44941;45.058;20.076;2022-09-09T13:13:21;17.15;;;4.22;;
59159;SDS011;44941;45.058;20.076;2022-09-09T13:15:49;14.40;;;4.47;;
59159;SDS011;44941;45.058;20.076;2022-09-09T13:18:16;11.13;;;4.35;;
59159;SDS011;44941;45.058;20.076;2022-09-09T13:20:47;8.73;;;4.28;;
59159;SDS011;44941;45.058;20.076;2022-09-09T13:23:14;11.93;;;4.07;;
59159;SDS011;44941;45.058;20.076;2022-09-09T13:25:40;9.25;;;3.72;;
59159;SDS011;44941;45.058;20.076;2022-09-09T13:28:18;7.18;;;3.90;;
59159;SDS011;44941;45.058;20.076;2022-09-09T13:30:54;9.37;;;4.07;;
59159;SDS011;44941;45.058;20.076;2022-09-09T13:33:24;6.53;;;2.92;;
59159;SDS011;44941;45.058;20.076;2022-09-09T13:35:55;9.57;;;2.97;;
59159;SDS011;44941;45.058;20.076;2022-09-09T13:38:22;7.30;;;2.90;;
59159;SDS011;44941;45.058;20.076;2022-09-09T13:41:03;8.18;;;3.40;;
59159;SDS011;44941;45.058;20.076;2022-09-09T13:43:30;6.38;;;3.20;;
59159;SDS011;44941;45.058;20.076;2022-09-09T13:45:58;10.10;;;3.75;;
59159;SDS011;44941;45.058;20.076;2022-09-09T13:48:25;9.63;;;4.00;;
59159;SDS011;44941;45.058;20.076;2022-09-09T13:50:55;15.65;;;6.20;;
59159;SDS011;44941;45.058;20.076;2022-09-09T13:53:21;12.73;;;4.63;;
59159;SDS011;44941;45.058;20.076;2022-09-09T13:55:47;12.32;;;3.42;;
59159;SDS011;44941;45.058;20.076;2022-09-09T13:58:14;10.27;;;3.55;;
59159;SDS011;44941;45.058;20.076;2022-09-09T14:00:41;6.60;;;3.08;;
59159;SDS011;44941;45.058;20.076;2022-09-09T14:03:08;6.45;;;3.28;;
59159;SDS011;44941;45.058;20.076;2022-09-09T14:05:35;5.37;;;2.93;;
59159;SDS011;44941;45.058;20.076;2022-09-09T14:08:03;9.85;;;3.50;;
59159;SDS011;44941;45.058;20.076;2022-09-09T14:10:29;7.07;;;3.03;;
59159;SDS011;44941;45.058;20.076;2022-09-09T14:12:55;8.80;;;3.00;;
59159;SDS011;44941;45.058;20.076;2022-09-09T14:15:21;7.15;;;3.17;;
59159;SDS011;44941;45.058;20.076;2022-09-09T14:17:47;9.07;;;3.10;;
59159;SDS011;44941;45.058;20.076;2022-09-09T14:20:14;7.68;;;2.80;;
59159;SDS011;44941;45.058;20.076;2022-09-09T14:22:42;6.90;;;2.55;;
59159;SDS011;44941;45.058;20.076;2022-09-09T14:25:09;11.35;;;3.30;;
59159;SDS011;44941;45.058;20.076;2022-09-09T14:27:36;7.72;;;3.60;;
59159;SDS011;44941;45.058;20.076;2022-09-09T14:30:04;8.48;;;3.33;;
59159;SDS011;44941;45.058;20.076;2022-09-09T14:32:30;11.97;;;3.17;;
59159;SDS011;44941;45.058;20.076;2022-09-09T14:34:56;5.68;;;3.30;;
59159;SDS011;44941;45.058;20.076;2022-09-09T14:37:22;5.60;;;2.90;;
59159;SDS011;44941;45.058;20.076;2022-09-09T14:39:49;10.27;;;4.83;;
59159;SDS011;44941;45.058;20.076;2022-09-09T14:42:15;7.18;;;3.63;;
59159;SDS011;44941;45.058;20.076;2022-09-09T14:44:42;13.85;;;4.60;;
59159;SDS011;44941;45.058;20.076;2022-09-09T14:47:08;13.88;;;5.30;;
59159;SDS011;44941;45.058;20.076;2022-09-09T14:49:34;11.68;;;5.20;;
59159;SDS011;44941;45.058;20.076;2022-09-09T14:52:01;12.60;;;4.90;;
59159;SDS011;44941;45.058;20.076;2022-09-09T14:54:27;8.32;;;4.43;;
59159;SDS011;44941;45.058;20.076;2022-09-09T14:56:53;9.57;;;5.63;;
59159;SDS011;44941;45.058;20.076;2022-09-09T14:59:19;14.18;;;4.82;;
59159;SDS011;44941;45.058;20.076;2022-09-09T15:01:47;9.43;;;4.53;;
59159;SDS011;44941;45.058;20.076;2022-09-09T15:04:13;8.70;;;3.85;;
59159;SDS011;44941;45.058;20.076;2022-09-09T15:06:39;12.32;;;4.82;;
59159;SDS011;44941;45.058;20.076;2022-09-09T15:09:08;16.33;;;4.70;;
59159;SDS011;44941;45.058;20.076;2022-09-09T15:11:35;9.67;;;4.00;;
59159;SDS011;44941;45.058;20.076;2022-09-09T15:14:05;8.60;;;3.47;;
59159;SDS011;44941;45.058;20.076;2022-09-09T15:16:31;8.98;;;4.47;;
59159;SDS011;44941;45.058;20.076;2022-09-09T15:18:58;7.93;;;3.95;;
59159;SDS011;44941;45.058;20.076;2022-09-09T15:21:26;8.65;;;3.90;;
59159;SDS011;44941;45.058;20.076;2022-09-09T15:23:52;10.13;;;3.95;;
59159;SDS011;44941;45.058;20.076;2022-09-09T15:26:18;7.55;;;3.63;;
59159;SDS011;44941;45.058;20.076;2022-09-09T15:28:46;10.07;;;4.22;;
59159;SDS011;44941;45.058;20.076;2022-09-09T15:31:17;11.63;;;6.05;;
59159;SDS011;44941;45.058;20.076;2022-09-09T15:33:47;11.25;;;4.80;;
59159;SDS011;44941;45.058;20.076;2022-09-09T15:36:14;12.27;;;5.32;;
59159;SDS011;44941;45.058;20.076;2022-09-09T15:38:41;9.27;;;4.50;;
59159;SDS011;44941;45.058;20.076;2022-09-09T15:41:08;10.38;;;4.60;;
59159;SDS011;44941;45.058;20.076;2022-09-09T15:43:34;8.35;;;5.10;;
59159;SDS011;44941;45.058;20.076;2022-09-09T15:46:02;9.35;;;4.53;;
59159;SDS011;44941;45.058;20.076;2022-09-09T15:48:33;11.73;;;4.65;;
59159;SDS011;44941;45.058;20.076;2022-09-09T15:51:01;12.05;;;5.10;;
59159;SDS011;44941;45.058;20.076;2022-09-09T15:53:28;11.50;;;4.43;;
59159;SDS011;44941;45.058;20.076;2022-09-09T15:55:55;9.13;;;5.35;;
59159;SDS011;44941;45.058;20.076;2022-09-09T15:58:21;15.47;;;5.57;;
59159;SDS011;44941;45.058;20.076;2022-09-09T16:00:47;10.10;;;5.93;;
59159;SDS011;44941;45.058;20.076;2022-09-09T16:03:13;11.82;;;5.53;;
59159;SDS011;44941;45.058;20.076;2022-09-09T16:05:40;11.45;;;6.05;;
59159;SDS011;44941;45.058;20.076;2022-09-09T16:08:06;10.95;;;5.15;;
59159;SDS011;44941;45.058;20.076;2022-09-09T16:10:32;9.30;;;5.85;;
59159;SDS011;44941;45.058;20.076;2022-09-09T16:12:58;17.08;;;8.05;;
59159;SDS011;44941;45.058;20.076;2022-09-09T16:15:24;15.52;;;6.00;;
59159;SDS011;44941;45.058;20.076;2022-09-09T16:17:53;12.32;;;5.88;;
59159;SDS011;44941;45.058;20.076;2022-09-09T16:20:19;11.13;;;5.88;;
59159;SDS011;44941;45.058;20.076;2022-09-09T16:22:45;10.68;;;5.85;;
59159;SDS011;44941;45.058;20.076;2022-09-09T16:25:11;11.60;;;5.18;;
59159;SDS011;44941;45.058;20.076;2022-09-09T16:27:37;11.15;;;5.63;;
59159;SDS011;44941;45.058;20.076;2022-09-09T16:30:03;12.05;;;5.63;;
59159;SDS011;44941;45.058;20.076;2022-09-09T16:32:30;8.52;;;5.30;;
59159;SDS011;44941;45.058;20.076;2022-09-09T16:34:56;10.93;;;5.68;;
59159;SDS011;44941;45.058;20.076;2022-09-09T16:37:22;11.45;;;5.05;;
59159;SDS011;44941;45.058;20.076;2022-09-09T16:39:48;12.30;;;5.18;;
59159;SDS011;44941;45.058;20.076;2022-09-09T16:42:15;9.45;;;5.20;;